Terminal Aerodrome Forecast
Issued by NWS

Home | Current Version | Previous Version | Text Only | Print | Product List | Glossary On
Versions: 1 2 3 4 5 6 7 8 9 10 11 12 13 14 15 16 17 18 19 20 21 22 23 24 25
659
FTUS46 KOTX 261739
TAFCOE
TAF
KCOE 261739Z 2618/2718 VRB04KT P6SM SCT200
     FM262100 26006KT P6SM SCT200
     FM270400 14006KT P6SM SCT150 BKN200
     FM271600 18010KT P6SM SCT150 BKN200
      AMD LTD TO CLD VIS AND WIND=

USA.gov is the U.S. government's official web portal to all federal, state and local government web resources and services.